EGFF/CWL METAR and TAF weather

Enter ICAO airport designator
Station Type Date Time Source
EGFF METAR 2019/08/25 02:50 UTC NOAA

EGFF 250250Z AUTO 08004KT 9999 NCD 18/13 Q1016


Station Type Date Time Source
EGFF Decoded METAR 2019/08/25 02:50 UTC NOAA

Station name not available
Aug 24, 2019 - 10:50 PM EDT / 2019.08.25 0250 UTC
Wind: from the E (080 degrees) at 5 MPH (4 KT):0
Visibility: greater than 7 mile(s):0
Temperature: 64 F (18 C)
Dew Point: 55 F (13 C)
Relative Humidity: 72%
Pressure (altimeter): 30.00 in. Hg (1016 hPa)
ob: EGFF 250250Z AUTO 08004KT 9999 NCD 18/13 Q1016
cycle: 3

Station Type Date Time Source
EGFF TAF 2019/08/24 18:09 UTC NOAA

TAF EGFF 241656Z 2418/2518 VRB03KT 9999 FEW045
TEMPO 2503/2509 7000 BKN014

Example: see airport list